Terminal Aerodrome Forecast
Issued by NWS Hastings, NE

Home | Current Version | Previous Version | Text Only | Print | Product List | Glossary On
Versions: 1 2 3 4 5 6 7 8 9 10 11 12 13 14
632
FTUS45 KGID 200534
TAFEAR
TAF
KEAR 200534Z 2006/2106 14009KT P6SM BKN250
     FM201600 15015G23KT P6SM OVC250
     FM202300 11010KT P6SM VCSH OVC080=

USA.gov is the U.S. government's official web portal to all federal, state and local government web resources and services.